Florida City, Florida
Current Conditions -  °F | °C
As of 11:58 AM on Tuesday 21 Oct 2014 (Local Time) from KHST Reporting Station
Clear Clear  
Wind Chill: 78°   Ceiling: Unl
Heat Index: 79°   Visibility: 10mi
Dew Point: 75°   Wind: 3mph
Humidity: 91%   Direction: 170°S
Pressure: 29.98"   Gusts: NA
Location:  25.456°N, 80.4546°W
Report Text: KHST 211558Z AUTO 17003KT 10SM CLR 25/24 A2998 RMK AO2 RAB1503DZE1503 CIG 008 RWY23 SLP155 P0002 T02530238
Loading
Personal Weather Stations






























Interactive Weather Map
Tropical Storm Tracking
New forecast layout! Learn more

10-Day Weather Forecast

Advertisements
Track Severe Weather on mobile